sensor_id;sensor_type;location;lat;lon;timestamp;temperature;humidity
5779;DHT22;2916;49.798;10.022;2023-06-19T00:00:52;22.70;1.00
5779;DHT22;2916;49.798;10.022;2023-06-19T00:03:19;22.70;1.00
5779;DHT22;2916;49.798;10.022;2023-06-19T00:05:46;22.70;1.00
5779;DHT22;2916;49.798;10.022;2023-06-19T00:08:14;22.70;1.00
5779;DHT22;2916;49.798;10.022;2023-06-19T00:10:42;22.70;1.00
5779;DHT22;2916;49.798;10.022;2023-06-19T00:13:09;22.70;1.00
5779;DHT22;2916;49.798;10.022;2023-06-19T00:15:36;22.60;1.00
5779;DHT22;2916;49.798;10.022;2023-06-19T00:18:04;22.60;1.00
5779;DHT22;2916;49.798;10.022;2023-06-19T00:20:32;22.70;1.00
5779;DHT22;2916;49.798;10.022;2023-06-19T00:23:00;22.70;1.00
5779;DHT22;2916;49.798;10.022;2023-06-19T00:25:28;22.70;1.00
5779;DHT22;2916;49.798;10.022;2023-06-19T00:27:56;22.60;1.00
5779;DHT22;2916;49.798;10.022;2023-06-19T00:30:23;22.60;1.00
5779;DHT22;2916;49.798;10.022;2023-06-19T00:32:51;22.50;1.00
5779;DHT22;2916;49.798;10.022;2023-06-19T00:35:18;22.40;1.00
5779;DHT22;2916;49.798;10.022;2023-06-19T00:37:47;22.30;1.00
5779;DHT22;2916;49.798;10.022;2023-06-19T00:40:21;22.30;1.00
5779;DHT22;2916;49.798;10.022;2023-06-19T00:42:53;22.30;1.00
5779;DHT22;2916;49.798;10.022;2023-06-19T00:45:22;22.40;1.00
5779;DHT22;2916;49.798;10.022;2023-06-19T00:47:50;22.40;1.00
5779;DHT22;2916;49.798;10.022;2023-06-19T00:50:17;22.40;1.00
5779;DHT22;2916;49.798;10.022;2023-06-19T00:52:45;22.40;1.00
5779;DHT22;2916;49.798;10.022;2023-06-19T00:55:13;22.40;1.00
5779;DHT22;2916;49.798;10.022;2023-06-19T00:57:42;22.30;1.00
5779;DHT22;2916;49.798;10.022;2023-06-19T01:00:11;22.20;1.00
5779;DHT22;2916;49.798;10.022;2023-06-19T01:02:40;22.20;1.00
5779;DHT22;2916;49.798;10.022;2023-06-19T01:05:07;22.10;1.00
5779;DHT22;2916;49.798;10.022;2023-06-19T01:07:44;22.10;1.00
5779;DHT22;2916;49.798;10.022;2023-06-19T01:10:20;22.00;1.00
5779;DHT22;2916;49.798;10.022;2023-06-19T01:12:54;22.00;1.00
5779;DHT22;2916;49.798;10.022;2023-06-19T01:15:26;22.00;1.00
5779;DHT22;2916;49.798;10.022;2023-06-19T01:17:56;21.90;1.00
5779;DHT22;2916;49.798;10.022;2023-06-19T01:20:25;22.00;1.00
5779;DHT22;2916;49.798;10.022;2023-06-19T01:22:53;22.00;1.00
5779;DHT22;2916;49.798;10.022;2023-06-19T01:25:22;22.00;1.00
5779;DHT22;2916;49.798;10.022;2023-06-19T01:27:50;21.90;1.00
5779;DHT22;2916;49.798;10.022;2023-06-19T01:30:18;21.90;1.00
5779;DHT22;2916;49.798;10.022;2023-06-19T01:32:53;21.90;1.00
5779;DHT22;2916;49.798;10.022;2023-06-19T01:35:28;21.80;1.00
5779;DHT22;2916;49.798;10.022;2023-06-19T01:38:01;21.70;1.00
5779;DHT22;2916;49.798;10.022;2023-06-19T01:40:30;21.70;1.00
5779;DHT22;2916;49.798;10.022;2023-06-19T01:42:59;21.60;1.00
5779;DHT22;2916;49.798;10.022;2023-06-19T01:45:28;21.50;1.00
5779;DHT22;2916;49.798;10.022;2023-06-19T01:47:57;21.50;1.00
5779;DHT22;2916;49.798;10.022;2023-06-19T01:50:24;21.40;1.00
5779;DHT22;2916;49.798;10.022;2023-06-19T01:52:52;21.30;1.00
5779;DHT22;2916;49.798;10.022;2023-06-19T01:55:21;21.30;1.00
5779;DHT22;2916;49.798;10.022;2023-06-19T01:57:48;21.20;1.00
5779;DHT22;2916;49.798;10.022;2023-06-19T02:00:16;21.20;1.00
5779;DHT22;2916;49.798;10.022;2023-06-19T02:02:44;21.10;1.00
5779;DHT22;2916;49.798;10.022;2023-06-19T02:05:12;21.00;1.00
5779;DHT22;2916;49.798;10.022;2023-06-19T02:07:40;21.00;1.00
5779;DHT22;2916;49.798;10.022;2023-06-19T02:10:08;20.90;1.00
5779;DHT22;2916;49.798;10.022;2023-06-19T02:12:37;20.90;1.00
5779;DHT22;2916;49.798;10.022;2023-06-19T02:15:05;20.80;1.00
5779;DHT22;2916;49.798;10.022;2023-06-19T02:17:33;20.70;1.00
5779;DHT22;2916;49.798;10.022;2023-06-19T02:20:00;20.60;1.00
5779;DHT22;2916;49.798;10.022;2023-06-19T02:22:28;20.50;1.00
5779;DHT22;2916;49.798;10.022;2023-06-19T02:24:56;20.50;1.00
5779;DHT22;2916;49.798;10.022;2023-06-19T02:27:23;20.50;1.00
5779;DHT22;2916;49.798;10.022;2023-06-19T02:29:51;20.60;1.00
5779;DHT22;2916;49.798;10.022;2023-06-19T02:32:18;20.60;1.00
5779;DHT22;2916;49.798;10.022;2023-06-19T02:34:45;20.60;1.00
5779;DHT22;2916;49.798;10.022;2023-06-19T02:37:13;20.60;1.00
5779;DHT22;2916;49.798;10.022;2023-06-19T02:39:40;20.60;1.00
5779;DHT22;2916;49.798;10.022;2023-06-19T02:42:08;20.40;1.00
5779;DHT22;2916;49.798;10.022;2023-06-19T02:44:35;20.50;1.00
5779;DHT22;2916;49.798;10.022;2023-06-19T02:47:04;20.50;1.00
5779;DHT22;2916;49.798;10.022;2023-06-19T02:49:31;20.40;1.00
5779;DHT22;2916;49.798;10.022;2023-06-19T02:51:59;20.40;1.00
5779;DHT22;2916;49.798;10.022;2023-06-19T02:54:26;20.20;1.00
5779;DHT22;2916;49.798;10.022;2023-06-19T02:56:53;20.20;1.00
5779;DHT22;2916;49.798;10.022;2023-06-19T02:59:20;20.30;1.00
5779;DHT22;2916;49.798;10.022;2023-06-19T03:01:47;20.30;1.00
5779;DHT22;2916;49.798;10.022;2023-06-19T03:04:16;20.40;1.00
5779;DHT22;2916;49.798;10.022;2023-06-19T03:06:43;20.30;1.00
5779;DHT22;2916;49.798;10.022;2023-06-19T03:09:11;20.40;1.00
5779;DHT22;2916;49.798;10.022;2023-06-19T03:11:38;20.50;1.00
5779;DHT22;2916;49.798;10.022;2023-06-19T03:14:06;20.60;1.00
5779;DHT22;2916;49.798;10.022;2023-06-19T03:16:34;20.70;1.00
5779;DHT22;2916;49.798;10.022;2023-06-19T03:19:01;20.70;1.00
5779;DHT22;2916;49.798;10.022;2023-06-19T03:21:30;20.80;1.00
5779;DHT22;2916;49.798;10.022;2023-06-19T03:23:57;20.80;1.00
5779;DHT22;2916;49.798;10.022;2023-06-19T03:26:24;20.90;1.00
5779;DHT22;2916;49.798;10.022;2023-06-19T03:28:52;20.90;1.00
5779;DHT22;2916;49.798;10.022;2023-06-19T03:31:19;20.90;1.00
5779;DHT22;2916;49.798;10.022;2023-06-19T03:33:46;20.90;1.00
5779;DHT22;2916;49.798;10.022;2023-06-19T03:36:13;20.80;1.00
5779;DHT22;2916;49.798;10.022;2023-06-19T03:38:42;20.80;1.00
5779;DHT22;2916;49.798;10.022;2023-06-19T03:41:09;20.80;1.00
5779;DHT22;2916;49.798;10.022;2023-06-19T03:43:38;20.80;1.00
5779;DHT22;2916;49.798;10.022;2023-06-19T03:46:05;20.80;1.00
5779;DHT22;2916;49.798;10.022;2023-06-19T03:48:32;20.80;1.00
5779;DHT22;2916;49.798;10.022;2023-06-19T03:50:59;20.80;1.00
5779;DHT22;2916;49.798;10.022;2023-06-19T03:53:27;20.80;1.00
5779;DHT22;2916;49.798;10.022;2023-06-19T03:55:56;20.80;1.00
5779;DHT22;2916;49.798;10.022;2023-06-19T03:58:23;20.80;1.00
5779;DHT22;2916;49.798;10.022;2023-06-19T04:00:50;20.80;1.00
5779;DHT22;2916;49.798;10.022;2023-06-19T04:03:18;20.80;1.00
5779;DHT22;2916;49.798;10.022;2023-06-19T04:05:45;20.80;1.00
5779;DHT22;2916;49.798;10.022;2023-06-19T04:08:13;20.90;1.00
5779;DHT22;2916;49.798;10.022;2023-06-19T04:10:40;20.80;1.00
5779;DHT22;2916;49.798;10.022;2023-06-19T04:13:08;20.90;1.00
5779;DHT22;2916;49.798;10.022;2023-06-19T04:15:35;20.90;1.00
5779;DHT22;2916;49.798;10.022;2023-06-19T04:18:03;20.90;1.00
5779;DHT22;2916;49.798;10.022;2023-06-19T04:20:30;20.90;1.00
5779;DHT22;2916;49.798;10.022;2023-06-19T04:22:59;20.90;1.00
5779;DHT22;2916;49.798;10.022;2023-06-19T04:25:26;20.90;1.00
5779;DHT22;2916;49.798;10.022;2023-06-19T04:27:53;20.90;1.00
5779;DHT22;2916;49.798;10.022;2023-06-19T04:30:22;20.90;1.00
5779;DHT22;2916;49.798;10.022;2023-06-19T04:32:49;20.90;1.00
5779;DHT22;2916;49.798;10.022;2023-06-19T04:35:18;21.00;1.00
5779;DHT22;2916;49.798;10.022;2023-06-19T04:37:46;21.00;1.00
5779;DHT22;2916;49.798;10.022;2023-06-19T04:40:14;21.10;1.00
5779;DHT22;2916;49.798;10.022;2023-06-19T04:42:42;21.10;1.00
5779;DHT22;2916;49.798;10.022;2023-06-19T04:45:09;21.20;1.00
5779;DHT22;2916;49.798;10.022;2023-06-19T04:47:38;21.20;1.00
5779;DHT22;2916;49.798;10.022;2023-06-19T04:50:07;21.20;1.00
5779;DHT22;2916;49.798;10.022;2023-06-19T04:52:35;21.20;1.00
5779;DHT22;2916;49.798;10.022;2023-06-19T04:55:04;21.20;1.00
5779;DHT22;2916;49.798;10.022;2023-06-19T04:57:35;21.20;1.00
5779;DHT22;2916;49.798;10.022;2023-06-19T05:00:03;21.20;1.00
5779;DHT22;2916;49.798;10.022;2023-06-19T05:02:32;21.30;1.00
5779;DHT22;2916;49.798;10.022;2023-06-19T05:05:00;21.20;1.00
5779;DHT22;2916;49.798;10.022;2023-06-19T05:07:29;21.20;1.00
5779;DHT22;2916;49.798;10.022;2023-06-19T05:09:57;21.20;1.00
5779;DHT22;2916;49.798;10.022;2023-06-19T05:12:24;21.20;1.00
5779;DHT22;2916;49.798;10.022;2023-06-19T05:14:51;21.30;1.00
5779;DHT22;2916;49.798;10.022;2023-06-19T05:17:18;21.30;1.00
5779;DHT22;2916;49.798;10.022;2023-06-19T05:19:45;21.20;1.00
5779;DHT22;2916;49.798;10.022;2023-06-19T05:22:14;21.30;1.00
5779;DHT22;2916;49.798;10.022;2023-06-19T05:24:43;21.30;1.00
5779;DHT22;2916;49.798;10.022;2023-06-19T05:27:12;21.30;1.00
5779;DHT22;2916;49.798;10.022;2023-06-19T05:29:39;21.30;1.00
5779;DHT22;2916;49.798;10.022;2023-06-19T05:32:07;21.30;1.00
5779;DHT22;2916;49.798;10.022;2023-06-19T05:34:34;21.40;1.00
5779;DHT22;2916;49.798;10.022;2023-06-19T05:37:01;21.40;1.00
5779;DHT22;2916;49.798;10.022;2023-06-19T05:39:31;21.40;1.00
5779;DHT22;2916;49.798;10.022;2023-06-19T05:41:58;21.40;1.00
5779;DHT22;2916;49.798;10.022;2023-06-19T05:44:25;21.50;1.00
5779;DHT22;2916;49.798;10.022;2023-06-19T05:46:52;21.50;1.00
5779;DHT22;2916;49.798;10.022;2023-06-19T05:49:19;21.50;1.00
5779;DHT22;2916;49.798;10.022;2023-06-19T05:51:47;21.60;1.00
5779;DHT22;2916;49.798;10.022;2023-06-19T05:54:14;21.70;1.00
5779;DHT22;2916;49.798;10.022;2023-06-19T05:56:44;21.80;1.00
5779;DHT22;2916;49.798;10.022;2023-06-19T05:59:12;21.80;1.00
5779;DHT22;2916;49.798;10.022;2023-06-19T06:01:41;21.90;1.00
5779;DHT22;2916;49.798;10.022;2023-06-19T06:04:08;22.00;1.00
5779;DHT22;2916;49.798;10.022;2023-06-19T06:06:36;22.10;1.00
5779;DHT22;2916;49.798;10.022;2023-06-19T06:09:03;22.10;1.00
5779;DHT22;2916;49.798;10.022;2023-06-19T06:11:30;22.10;1.00
5779;DHT22;2916;49.798;10.022;2023-06-19T06:13:59;22.20;1.00
5779;DHT22;2916;49.798;10.022;2023-06-19T06:16:26;22.20;1.00
5779;DHT22;2916;49.798;10.022;2023-06-19T06:18:53;22.30;1.00
5779;DHT22;2916;49.798;10.022;2023-06-19T06:21:21;22.50;1.00
5779;DHT22;2916;49.798;10.022;2023-06-19T06:23:48;22.70;1.00
5779;DHT22;2916;49.798;10.022;2023-06-19T06:26:15;22.80;1.00
5779;DHT22;2916;49.798;10.022;2023-06-19T06:28:42;22.90;1.00
5779;DHT22;2916;49.798;10.022;2023-06-19T06:31:10;23.20;1.00
5779;DHT22;2916;49.798;10.022;2023-06-19T06:33:38;23.70;1.00
5779;DHT22;2916;49.798;10.022;2023-06-19T06:36:05;23.80;1.00
5779;DHT22;2916;49.798;10.022;2023-06-19T06:38:32;24.00;1.00
5779;DHT22;2916;49.798;10.022;2023-06-19T06:41:00;24.50;1.00
5779;DHT22;2916;49.798;10.022;2023-06-19T06:43:27;24.30;1.00
5779;DHT22;2916;49.798;10.022;2023-06-19T06:45:54;24.40;1.00
5779;DHT22;2916;49.798;10.022;2023-06-19T06:48:23;24.40;1.00
5779;DHT22;2916;49.798;10.022;2023-06-19T06:50:50;24.70;1.00
5779;DHT22;2916;49.798;10.022;2023-06-19T06:53:18;24.90;1.00
5779;DHT22;2916;49.798;10.022;2023-06-19T06:55:45;24.80;1.00
5779;DHT22;2916;49.798;10.022;2023-06-19T06:58:12;24.80;1.00
5779;DHT22;2916;49.798;10.022;2023-06-19T07:00:40;24.90;1.00
5779;DHT22;2916;49.798;10.022;2023-06-19T07:03:07;24.90;1.00
5779;DHT22;2916;49.798;10.022;2023-06-19T07:05:36;25.10;1.00
5779;DHT22;2916;49.798;10.022;2023-06-19T07:08:03;25.20;1.00
5779;DHT22;2916;49.798;10.022;2023-06-19T07:10:30;25.30;1.00
5779;DHT22;2916;49.798;10.022;2023-06-19T07:12:58;25.40;1.00
5779;DHT22;2916;49.798;10.022;2023-06-19T07:15:25;25.50;1.00
5779;DHT22;2916;49.798;10.022;2023-06-19T07:17:52;25.30;1.00
5779;DHT22;2916;49.798;10.022;2023-06-19T07:20:20;25.50;1.00
5779;DHT22;2916;49.798;10.022;2023-06-19T07:22:51;25.50;1.00
5779;DHT22;2916;49.798;10.022;2023-06-19T07:25:19;25.70;1.00
5779;DHT22;2916;49.798;10.022;2023-06-19T07:27:49;25.80;1.00
5779;DHT22;2916;49.798;10.022;2023-06-19T07:30:17;25.90;1.00
5779;DHT22;2916;49.798;10.022;2023-06-19T07:32:47;25.60;1.00
5779;DHT22;2916;49.798;10.022;2023-06-19T07:35:14;25.70;1.00
5779;DHT22;2916;49.798;10.022;2023-06-19T07:37:41;26.00;1.00
5779;DHT22;2916;49.798;10.022;2023-06-19T07:40:11;26.00;1.00
5779;DHT22;2916;49.798;10.022;2023-06-19T07:42:38;25.90;1.00
5779;DHT22;2916;49.798;10.022;2023-06-19T07:45:07;26.00;1.00
5779;DHT22;2916;49.798;10.022;2023-06-19T07:47:35;25.90;1.00
5779;DHT22;2916;49.798;10.022;2023-06-19T07:50:02;25.90;1.00
5779;DHT22;2916;49.798;10.022;2023-06-19T07:52:30;25.80;1.00
5779;DHT22;2916;49.798;10.022;2023-06-19T07:54:58;25.90;1.00
5779;DHT22;2916;49.798;10.022;2023-06-19T07:57:27;25.60;1.00
5779;DHT22;2916;49.798;10.022;2023-06-19T07:59:55;25.70;1.00
5779;DHT22;2916;49.798;10.022;2023-06-19T08:02:22;26.00;1.00
5779;DHT22;2916;49.798;10.022;2023-06-19T08:04:49;26.00;1.00
5779;DHT22;2916;49.798;10.022;2023-06-19T08:07:17;26.30;1.00
5779;DHT22;2916;49.798;10.022;2023-06-19T08:09:44;26.40;1.00
5779;DHT22;2916;49.798;10.022;2023-06-19T08:12:11;26.70;1.00
5779;DHT22;2916;49.798;10.022;2023-06-19T08:14:39;26.90;1.00
5779;DHT22;2916;49.798;10.022;2023-06-19T08:17:07;26.80;1.00
5779;DHT22;2916;49.798;10.022;2023-06-19T08:19:34;27.00;1.00
5779;DHT22;2916;49.798;10.022;2023-06-19T08:22:01;27.30;1.00
5779;DHT22;2916;49.798;10.022;2023-06-19T08:24:29;27.20;1.00
5779;DHT22;2916;49.798;10.022;2023-06-19T08:26:56;27.20;1.00
5779;DHT22;2916;49.798;10.022;2023-06-19T08:29:24;27.60;1.00
5779;DHT22;2916;49.798;10.022;2023-06-19T08:31:52;27.10;1.00
5779;DHT22;2916;49.798;10.022;2023-06-19T08:34:20;27.10;1.00
5779;DHT22;2916;49.798;10.022;2023-06-19T08:36:47;27.00;1.00
5779;DHT22;2916;49.798;10.022;2023-06-19T08:39:14;27.20;1.00
5779;DHT22;2916;49.798;10.022;2023-06-19T08:41:42;27.30;1.00
5779;DHT22;2916;49.798;10.022;2023-06-19T08:44:09;27.70;1.00
5779;DHT22;2916;49.798;10.022;2023-06-19T08:46:36;27.50;1.00
5779;DHT22;2916;49.798;10.022;2023-06-19T08:49:07;27.60;1.00
5779;DHT22;2916;49.798;10.022;2023-06-19T08:51:36;27.70;1.00
5779;DHT22;2916;49.798;10.022;2023-06-19T08:54:05;27.70;1.00
5779;DHT22;2916;49.798;10.022;2023-06-19T08:56:34;27.60;1.00
5779;DHT22;2916;49.798;10.022;2023-06-19T08:59:09;27.60;1.00
5779;DHT22;2916;49.798;10.022;2023-06-19T09:01:38;27.50;1.00
5779;DHT22;2916;49.798;10.022;2023-06-19T09:04:11;27.20;1.00
5779;DHT22;2916;49.798;10.022;2023-06-19T09:06:47;27.60;1.00
5779;DHT22;2916;49.798;10.022;2023-06-19T09:09:15;27.40;1.00
5779;DHT22;2916;49.798;10.022;2023-06-19T09:11:43;28.00;1.00
5779;DHT22;2916;49.798;10.022;2023-06-19T09:14:10;28.30;1.00
5779;DHT22;2916;49.798;10.022;2023-06-19T09:16:39;28.30;1.00
5779;DHT22;2916;49.798;10.022;2023-06-19T09:19:09;28.00;1.00
5779;DHT22;2916;49.798;10.022;2023-06-19T09:21:37;28.20;1.00
5779;DHT22;2916;49.798;10.022;2023-06-19T09:24:08;28.50;1.00
5779;DHT22;2916;49.798;10.022;2023-06-19T09:26:35;28.20;1.00
5779;DHT22;2916;49.798;10.022;2023-06-19T09:29:12;28.30;1.00
5779;DHT22;2916;49.798;10.022;2023-06-19T09:31:42;28.90;1.00
5779;DHT22;2916;49.798;10.022;2023-06-19T09:34:10;29.20;1.00
5779;DHT22;2916;49.798;10.022;2023-06-19T09:36:38;28.80;1.00
5779;DHT22;2916;49.798;10.022;2023-06-19T09:39:06;28.60;1.00
5779;DHT22;2916;49.798;10.022;2023-06-19T09:41:36;28.30;1.00
5779;DHT22;2916;49.798;10.022;2023-06-19T09:44:05;28.30;1.00
5779;DHT22;2916;49.798;10.022;2023-06-19T09:46:41;28.00;1.00
5779;DHT22;2916;49.798;10.022;2023-06-19T09:49:15;28.20;1.00
5779;DHT22;2916;49.798;10.022;2023-06-19T09:51:44;28.40;1.00
5779;DHT22;2916;49.798;10.022;2023-06-19T09:54:13;28.40;1.00
5779;DHT22;2916;49.798;10.022;2023-06-19T09:56:42;29.00;1.00
5779;DHT22;2916;49.798;10.022;2023-06-19T09:59:10;28.70;1.00
5779;DHT22;2916;49.798;10.022;2023-06-19T10:01:39;28.70;1.00
5779;DHT22;2916;49.798;10.022;2023-06-19T10:04:24;28.30;1.00
5779;DHT22;2916;49.798;10.022;2023-06-19T10:06:51;28.20;1.00
5779;DHT22;2916;49.798;10.022;2023-06-19T10:09:23;28.50;1.00
5779;DHT22;2916;49.798;10.022;2023-06-19T10:11:51;28.90;1.00
5779;DHT22;2916;49.798;10.022;2023-06-19T10:14:18;29.50;1.00
5779;DHT22;2916;49.798;10.022;2023-06-19T10:16:46;29.10;1.00
5779;DHT22;2916;49.798;10.022;2023-06-19T10:19:14;29.10;1.00
5779;DHT22;2916;49.798;10.022;2023-06-19T10:21:48;28.90;1.00
5779;DHT22;2916;49.798;10.022;2023-06-19T10:24:17;28.60;1.00
5779;DHT22;2916;49.798;10.022;2023-06-19T10:26:56;28.90;1.00
5779;DHT22;2916;49.798;10.022;2023-06-19T10:29:25;29.00;1.00
5779;DHT22;2916;49.798;10.022;2023-06-19T10:31:53;29.80;1.00
5779;DHT22;2916;49.798;10.022;2023-06-19T10:34:22;30.40;1.00
5779;DHT22;2916;49.798;10.022;2023-06-19T10:37:01;29.70;1.00
5779;DHT22;2916;49.798;10.022;2023-06-19T10:39:30;29.10;1.00
5779;DHT22;2916;49.798;10.022;2023-06-19T10:41:58;29.60;1.00
5779;DHT22;2916;49.798;10.022;2023-06-19T10:44:25;29.90;1.00
5779;DHT22;2916;49.798;10.022;2023-06-19T10:46:52;29.90;1.00
5779;DHT22;2916;49.798;10.022;2023-06-19T10:49:21;29.70;1.00
5779;DHT22;2916;49.798;10.022;2023-06-19T10:51:48;30.00;1.00
5779;DHT22;2916;49.798;10.022;2023-06-19T10:54:17;29.90;1.00
5779;DHT22;2916;49.798;10.022;2023-06-19T10:56:44;29.90;1.00
5779;DHT22;2916;49.798;10.022;2023-06-19T10:59:14;29.50;1.00
5779;DHT22;2916;49.798;10.022;2023-06-19T11:01:43;29.20;1.00
5779;DHT22;2916;49.798;10.022;2023-06-19T11:04:13;29.10;1.00
5779;DHT22;2916;49.798;10.022;2023-06-19T11:06:44;29.10;1.00
5779;DHT22;2916;49.798;10.022;2023-06-19T11:09:13;28.90;1.00
5779;DHT22;2916;49.798;10.022;2023-06-19T11:11:43;29.50;1.00
5779;DHT22;2916;49.798;10.022;2023-06-19T11:14:13;29.30;1.00
5779;DHT22;2916;49.798;10.022;2023-06-19T11:16:42;30.10;1.00
5779;DHT22;2916;49.798;10.022;2023-06-19T11:19:15;30.40;1.00
5779;DHT22;2916;49.798;10.022;2023-06-19T11:21:46;30.50;1.00
5779;DHT22;2916;49.798;10.022;2023-06-19T11:24:15;29.80;1.00
5779;DHT22;2916;49.798;10.022;2023-06-19T11:26:46;29.80;1.00
5779;DHT22;2916;49.798;10.022;2023-06-19T11:29:16;29.80;1.00
5779;DHT22;2916;49.798;10.022;2023-06-19T11:31:46;29.90;1.00
5779;DHT22;2916;49.798;10.022;2023-06-19T11:34:14;30.20;1.00
5779;DHT22;2916;49.798;10.022;2023-06-19T11:36:42;30.60;1.00
5779;DHT22;2916;49.798;10.022;2023-06-19T11:39:12;30.60;1.00
5779;DHT22;2916;49.798;10.022;2023-06-19T11:41:43;30.90;1.00
5779;DHT22;2916;49.798;10.022;2023-06-19T11:44:12;31.00;1.00
5779;DHT22;2916;49.798;10.022;2023-06-19T11:46:39;30.70;1.00
5779;DHT22;2916;49.798;10.022;2023-06-19T11:49:11;30.50;1.00
5779;DHT22;2916;49.798;10.022;2023-06-19T11:51:39;31.10;1.00
5779;DHT22;2916;49.798;10.022;2023-06-19T11:54:08;31.60;1.00
5779;DHT22;2916;49.798;10.022;2023-06-19T11:56:37;31.50;1.00
5779;DHT22;2916;49.798;10.022;2023-06-19T11:59:06;31.50;1.00
5779;DHT22;2916;49.798;10.022;2023-06-19T12:01:35;31.10;1.00
5779;DHT22;2916;49.798;10.022;2023-06-19T12:04:04;31.40;1.00
5779;DHT22;2916;49.798;10.022;2023-06-19T12:06:31;31.10;1.00
5779;DHT22;2916;49.798;10.022;2023-06-19T12:09:01;31.30;1.00
5779;DHT22;2916;49.798;10.022;2023-06-19T12:11:30;31.40;1.00
5779;DHT22;2916;49.798;10.022;2023-06-19T12:13:58;31.80;1.00
5779;DHT22;2916;49.798;10.022;2023-06-19T12:16:26;31.70;1.00
5779;DHT22;2916;49.798;10.022;2023-06-19T12:18:54;32.20;1.00
5779;DHT22;2916;49.798;10.022;2023-06-19T12:21:21;32.10;1.00
5779;DHT22;2916;49.798;10.022;2023-06-19T12:23:48;31.80;1.00
5779;DHT22;2916;49.798;10.022;2023-06-19T12:26:15;31.80;1.00
5779;DHT22;2916;49.798;10.022;2023-06-19T12:28:42;32.40;1.00
5779;DHT22;2916;49.798;10.022;2023-06-19T12:31:09;32.10;1.00
5779;DHT22;2916;49.798;10.022;2023-06-19T12:33:38;32.60;1.00
5779;DHT22;2916;49.798;10.022;2023-06-19T12:36:10;33.00;1.00
5779;DHT22;2916;49.798;10.022;2023-06-19T12:38:39;32.80;1.00
5779;DHT22;2916;49.798;10.022;2023-06-19T12:41:06;33.00;1.00
5779;DHT22;2916;49.798;10.022;2023-06-19T12:43:33;33.00;1.00
5779;DHT22;2916;49.798;10.022;2023-06-19T12:46:01;32.80;1.00
5779;DHT22;2916;49.798;10.022;2023-06-19T12:48:28;32.10;1.00
5779;DHT22;2916;49.798;10.022;2023-06-19T12:50:56;32.20;1.00
5779;DHT22;2916;49.798;10.022;2023-06-19T12:53:23;32.50;1.00
5779;DHT22;2916;49.798;10.022;2023-06-19T12:55:55;31.90;1.00
5779;DHT22;2916;49.798;10.022;2023-06-19T12:58:23;31.80;1.00
5779;DHT22;2916;49.798;10.022;2023-06-19T13:00:50;32.00;1.00
5779;DHT22;2916;49.798;10.022;2023-06-19T13:03:18;31.80;1.00
5779;DHT22;2916;49.798;10.022;2023-06-19T13:05:46;31.90;1.00
5779;DHT22;2916;49.798;10.022;2023-06-19T13:08:15;32.00;1.00
5779;DHT22;2916;49.798;10.022;2023-06-19T13:10:42;32.30;1.00
5779;DHT22;2916;49.798;10.022;2023-06-19T13:13:10;32.70;1.00
5779;DHT22;2916;49.798;10.022;2023-06-19T13:15:38;32.60;1.00
5779;DHT22;2916;49.798;10.022;2023-06-19T13:18:05;32.70;1.00
5779;DHT22;2916;49.798;10.022;2023-06-19T13:20:32;32.60;1.00
5779;DHT22;2916;49.798;10.022;2023-06-19T13:22:59;32.80;1.00
5779;DHT22;2916;49.798;10.022;2023-06-19T13:25:28;32.70;1.00
5779;DHT22;2916;49.798;10.022;2023-06-19T13:27:56;32.60;1.00
5779;DHT22;2916;49.798;10.022;2023-06-19T13:30:23;32.70;1.00
5779;DHT22;2916;49.798;10.022;2023-06-19T13:32:50;32.80;1.00
5779;DHT22;2916;49.798;10.022;2023-06-19T13:35:17;32.10;1.00
5779;DHT22;2916;49.798;10.022;2023-06-19T13:37:47;32.30;1.00
5779;DHT22;2916;49.798;10.022;2023-06-19T13:40:14;32.30;1.00
5779;DHT22;2916;49.798;10.022;2023-06-19T13:42:43;32.40;1.00
5779;DHT22;2916;49.798;10.022;2023-06-19T13:45:10;32.50;1.00
5779;DHT22;2916;49.798;10.022;2023-06-19T13:47:37;32.20;1.00
5779;DHT22;2916;49.798;10.022;2023-06-19T13:50:06;32.00;1.00
5779;DHT22;2916;49.798;10.022;2023-06-19T13:52:34;32.30;1.00
5779;DHT22;2916;49.798;10.022;2023-06-19T13:55:02;32.30;1.00
5779;DHT22;2916;49.798;10.022;2023-06-19T13:57:30;32.30;1.00
5779;DHT22;2916;49.798;10.022;2023-06-19T13:59:59;32.30;1.00
5779;DHT22;2916;49.798;10.022;2023-06-19T14:02:26;32.50;1.00
5779;DHT22;2916;49.798;10.022;2023-06-19T14:04:53;32.90;1.00
5779;DHT22;2916;49.798;10.022;2023-06-19T14:07:20;31.60;1.00
5779;DHT22;2916;49.798;10.022;2023-06-19T14:09:48;31.50;1.00
5779;DHT22;2916;49.798;10.022;2023-06-19T14:12:18;31.80;1.00
5779;DHT22;2916;49.798;10.022;2023-06-19T14:14:47;31.80;1.00
5779;DHT22;2916;49.798;10.022;2023-06-19T14:17:15;31.50;1.00
5779;DHT22;2916;49.798;10.022;2023-06-19T14:19:42;31.10;1.00
5779;DHT22;2916;49.798;10.022;2023-06-19T14:22:10;30.90;1.00
5779;DHT22;2916;49.798;10.022;2023-06-19T14:24:37;30.60;1.00
5779;DHT22;2916;49.798;10.022;2023-06-19T14:27:05;31.00;1.00
5779;DHT22;2916;49.798;10.022;2023-06-19T14:29:32;30.80;1.00
5779;DHT22;2916;49.798;10.022;2023-06-19T14:32:00;30.80;1.00
5779;DHT22;2916;49.798;10.022;2023-06-19T14:34:29;31.00;1.00
5779;DHT22;2916;49.798;10.022;2023-06-19T14:36:56;31.20;1.00
5779;DHT22;2916;49.798;10.022;2023-06-19T14:39:23;31.10;1.00
5779;DHT22;2916;49.798;10.022;2023-06-19T14:41:51;31.30;1.00
5779;DHT22;2916;49.798;10.022;2023-06-19T14:44:18;31.10;1.00
5779;DHT22;2916;49.798;10.022;2023-06-19T14:46:45;31.70;1.00
5779;DHT22;2916;49.798;10.022;2023-06-19T14:49:13;32.00;1.00
5779;DHT22;2916;49.798;10.022;2023-06-19T14:51:43;32.20;1.00
5779;DHT22;2916;49.798;10.022;2023-06-19T14:54:10;32.20;1.00
5779;DHT22;2916;49.798;10.022;2023-06-19T14:56:38;32.30;1.00
5779;DHT22;2916;49.798;10.022;2023-06-19T14:59:05;32.40;1.00
5779;DHT22;2916;49.798;10.022;2023-06-19T15:01:33;31.80;1.00
5779;DHT22;2916;49.798;10.022;2023-06-19T15:04:00;31.70;1.00
5779;DHT22;2916;49.798;10.022;2023-06-19T15:06:27;31.50;1.00
5779;DHT22;2916;49.798;10.022;2023-06-19T15:08:56;31.50;1.00
5779;DHT22;2916;49.798;10.022;2023-06-19T15:11:23;31.90;1.00
5779;DHT22;2916;49.798;10.022;2023-06-19T15:13:50;31.60;1.00
5779;DHT22;2916;49.798;10.022;2023-06-19T15:16:17;31.50;1.00
5779;DHT22;2916;49.798;10.022;2023-06-19T15:18:47;31.00;1.00
5779;DHT22;2916;49.798;10.022;2023-06-19T15:21:14;30.90;1.00
5779;DHT22;2916;49.798;10.022;2023-06-19T15:23:41;30.80;1.00
5779;DHT22;2916;49.798;10.022;2023-06-19T15:26:10;30.60;1.00
5779;DHT22;2916;49.798;10.022;2023-06-19T15:28:37;30.30;1.00
5779;DHT22;2916;49.798;10.022;2023-06-19T15:31:06;30.50;1.00
5779;DHT22;2916;49.798;10.022;2023-06-19T15:33:35;30.50;1.00
5779;DHT22;2916;49.798;10.022;2023-06-19T15:36:02;30.50;1.00
5779;DHT22;2916;49.798;10.022;2023-06-19T15:38:30;30.70;1.00
5779;DHT22;2916;49.798;10.022;2023-06-19T15:40:57;30.70;1.00
5779;DHT22;2916;49.798;10.022;2023-06-19T15:43:25;30.90;1.00
5779;DHT22;2916;49.798;10.022;2023-06-19T15:45:54;31.10;1.00
5779;DHT22;2916;49.798;10.022;2023-06-19T15:48:21;30.80;1.00
5779;DHT22;2916;49.798;10.022;2023-06-19T15:50:49;31.20;1.00
5779;DHT22;2916;49.798;10.022;2023-06-19T15:53:16;31.30;1.00
5779;DHT22;2916;49.798;10.022;2023-06-19T15:55:43;31.40;1.00
5779;DHT22;2916;49.798;10.022;2023-06-19T15:58:11;31.40;1.00
5779;DHT22;2916;49.798;10.022;2023-06-19T16:00:40;31.30;1.00
5779;DHT22;2916;49.798;10.022;2023-06-19T16:03:07;30.80;1.00
5779;DHT22;2916;49.798;10.022;2023-06-19T16:05:34;31.30;1.00
5779;DHT22;2916;49.798;10.022;2023-06-19T16:08:01;31.20;1.00